Time;durP1;ratioP1;P1;durP2;ratioP2;P2;SDS_P1;SDS_P2;PMS_P1;PMS_P2;Temp;Humidity;BMP_temperature;BMP_pressure;BME280_temperature;BME280_humidity;BME280_pressure;Samples;Min_cycle;Max_cycle;Signal;HPM_P1;HPM_P2
2022/11/25 00:00:47;;;;;;;7.60;1.80;;;;;;;;;;8318779;28;20095;-62
2022/11/25 00:04:48;;;;;;;6.53;2.03;;;;;;;;;;8334413;28;20097;-61
2022/11/25 00:08:49;;;;;;;11.67;3.03;;;;;;;;;;8335330;28;20032;-62
2022/11/25 00:12:49;;;;;;;6.70;1.60;;;;;;;;;;8334967;28;20267;-62
2022/11/25 00:16:50;;;;;;;11.65;2.10;;;;;;;;;;8334251;28;20877;-62
2022/11/25 00:20:50;;;;;;;8.70;1.57;;;;;;;;;;8334566;28;20032;-61
2022/11/25 00:24:50;;;;;;;6.93;2.03;;;;;;;;;;8332655;28;20306;-62
2022/11/25 00:28:51;;;;;;;5.07;1.75;;;;;;;;;;8334392;28;20463;-62
2022/11/25 00:32:52;;;;;;;7.68;2.35;;;;;;;;;;8333138;28;20075;-62
2022/11/25 00:36:52;;;;;;;7.20;2.28;;;;;;;;;;8332460;28;20032;-61
2022/11/25 00:45:12;;;;;;;4.85;1.75;;;;;;;;;;8335955;28;20397;-62
2022/11/25 00:49:12;;;;;;;8.68;1.65;;;;;;;;;;8337618;28;20048;-62
2022/11/25 00:53:13;;;;;;;3.58;1.75;;;;;;;;;;8338762;28;20132;-61
2022/11/25 00:57:14;;;;;;;6.67;1.93;;;;;;;;;;8337020;28;20039;-62
2022/11/25 01:01:14;;;;;;;6.25;1.83;;;;;;;;;;8334554;28;20268;-62
2022/11/25 01:05:14;;;;;;;10.05;1.95;;;;;;;;;;8336693;28;20028;-62
2022/11/25 01:09:15;;;;;;;7.77;1.63;;;;;;;;;;8335898;28;20032;-61
2022/11/25 01:13:15;;;;;;;5.70;1.45;;;;;;;;;;8335371;28;20283;-65
2022/11/25 01:17:15;;;;;;;5.57;1.70;;;;;;;;;;8335930;28;20817;-62
2022/11/25 01:21:23;;;;;;;10.35;2.05;;;;;;;;;;8337281;28;20021;-62
2022/11/25 01:25:24;;;;;;;6.80;1.48;;;;;;;;;;8335166;28;20025;-62
2022/11/25 01:29:25;;;;;;;8.13;1.67;;;;;;;;;;8339389;28;20020;-62
2022/11/25 01:33:25;;;;;;;8.52;2.17;;;;;;;;;;8342281;28;20032;-62
2022/11/25 01:37:25;;;;;;;7.65;2.08;;;;;;;;;;8340806;28;20029;-61
2022/11/25 01:41:27;;;;;;;9.55;1.40;;;;;;;;;;8341089;28;20104;-62
2022/11/25 01:45:32;;;;;;;7.78;1.50;;;;;;;;;;8342771;28;20498;-63
2022/11/25 01:49:35;;;;;;;8.00;1.50;;;;;;;;;;8341591;28;20033;-62
2022/11/25 01:53:35;;;;;;;7.83;1.20;;;;;;;;;;8343340;28;20152;-61
2022/11/25 01:57:47;;;;;;;6.33;1.73;;;;;;;;;;8344232;28;20056;-61
2022/11/25 02:01:48;;;;;;;8.38;1.63;;;;;;;;;;8344120;28;20271;-62
2022/11/25 02:05:51;;;;;;;7.43;1.75;;;;;;;;;;8341920;28;20037;-62
2022/11/25 02:09:52;;;;;;;12.27;1.70;;;;;;;;;;8343748;28;20060;-62
2022/11/25 02:13:52;;;;;;;5.50;1.77;;;;;;;;;;8321768;28;20028;-62
2022/11/25 02:17:52;;;;;;;6.40;2.03;;;;;;;;;;8341471;28;20144;-62
2022/11/25 02:21:59;;;;;;;5.77;1.43;;;;;;;;;;8342918;28;20313;-62
2022/11/25 02:25:59;;;;;;;8.23;1.67;;;;;;;;;;8342072;28;20291;-62
2022/11/25 02:29:59;;;;;;;6.95;1.65;;;;;;;;;;8340276;28;20086;-61
2022/11/25 02:34:00;;;;;;;11.43;1.80;;;;;;;;;;8341184;28;20096;-63
2022/11/25 02:38:19;;;;;;;10.15;1.67;;;;;;;;;;8343386;28;20032;-62
2022/11/25 02:42:20;;;;;;;6.55;2.03;;;;;;;;;;8340059;28;20028;-62
2022/11/25 02:46:22;;;;;;;5.75;1.88;;;;;;;;;;8340361;28;20818;-62
2022/11/25 02:50:22;;;;;;;8.32;1.77;;;;;;;;;;8342702;28;20106;-62
2022/11/25 02:54:22;;;;;;;7.43;1.70;;;;;;;;;;8340982;28;20020;-62
2022/11/25 02:58:23;;;;;;;7.63;1.65;;;;;;;;;;8330444;28;20283;-62
2022/11/25 03:02:23;;;;;;;7.90;1.85;;;;;;;;;;8342383;28;20040;-62
2022/11/25 03:06:23;;;;;;;6.57;1.73;;;;;;;;;;8339087;28;20048;-62
2022/11/25 03:10:23;;;;;;;6.60;1.40;;;;;;;;;;8341956;28;20484;-62
2022/11/25 03:14:24;;;;;;;6.20;1.77;;;;;;;;;;8339588;28;20068;-62
2022/11/25 03:18:24;;;;;;;10.48;1.85;;;;;;;;;;8338815;28;20290;-61
2022/11/25 03:22:24;;;;;;;6.80;2.05;;;;;;;;;;8339763;28;20035;-62
2022/11/25 03:26:25;;;;;;;10.52;2.50;;;;;;;;;;8339173;28;20016;-61
2022/11/25 03:30:26;;;;;;;7.10;1.70;;;;;;;;;;8338372;28;20906;-62
2022/11/25 03:34:26;;;;;;;8.68;1.58;;;;;;;;;;8338597;28;20024;-62
2022/11/25 03:38:27;;;;;;;7.30;1.33;;;;;;;;;;8339380;28;20027;-62
2022/11/25 03:42:27;;;;;;;5.13;1.53;;;;;;;;;;8339019;28;20016;-62
2022/11/25 03:46:27;;;;;;;7.40;1.52;;;;;;;;;;8338160;28;20278;-62
2022/11/25 03:50:27;;;;;;;5.10;1.50;;;;;;;;;;8338993;28;20064;-62
2022/11/25 03:54:28;;;;;;;5.78;1.27;;;;;;;;;;8339892;28;20021;-62
2022/11/25 03:58:28;;;;;;;6.28;1.00;;;;;;;;;;8340281;28;20785;-62
2022/11/25 04:02:28;;;;;;;6.65;2.03;;;;;;;;;;8339885;28;20025;-62
2022/11/25 04:06:28;;;;;;;4.35;1.13;;;;;;;;;;8337731;28;20020;-61
2022/11/25 04:10:29;;;;;;;4.18;1.30;;;;;;;;;;8340113;28;20140;-62
2022/11/25 04:14:29;;;;;;;6.80;1.40;;;;;;;;;;8337694;28;20035;-61
2022/11/25 04:18:30;;;;;;;2.45;1.20;;;;;;;;;;8338081;28;20048;-62
2022/11/25 04:22:30;;;;;;;6.50;1.45;;;;;;;;;;8338356;28;20032;-62
2022/11/25 04:26:30;;;;;;;5.17;1.20;;;;;;;;;;8339696;28;20017;-61
2022/11/25 04:30:31;;;;;;;5.50;1.27;;;;;;;;;;8337238;28;20270;-63
2022/11/25 04:34:31;;;;;;;10.27;1.45;;;;;;;;;;8338209;28;20280;-61
2022/11/25 04:38:32;;;;;;;4.35;1.17;;;;;;;;;;8337789;28;20084;-62
2022/11/25 04:42:38;;;;;;;6.57;1.10;;;;;;;;;;8338162;28;20028;-62
2022/11/25 04:46:39;;;;;;;5.75;1.30;;;;;;;;;;8337119;28;20036;-62
2022/11/25 04:50:39;;;;;;;7.68;1.95;;;;;;;;;;8337239;28;20136;-62
2022/11/25 04:54:40;;;;;;;8.00;2.20;;;;;;;;;;8338254;28;20397;-63
2022/11/25 05:02:59;;;;;;;5.72;1.88;;;;;;;;;;8337011;28;20037;-62
2022/11/25 05:06:59;;;;;;;8.90;2.83;;;;;;;;;;8343119;28;20028;-61
2022/11/25 05:10:59;;;;;;;8.35;4.07;;;;;;;;;;8343332;28;20075;-61
2022/11/25 05:14:59;;;;;;;7.97;3.40;;;;;;;;;;8344494;28;20035;-62
2022/11/25 05:18:59;;;;;;;8.48;2.42;;;;;;;;;;8342596;28;20029;-62
2022/11/25 05:23:00;;;;;;;5.67;1.80;;;;;;;;;;8343969;28;20035;-62
2022/11/25 05:27:00;;;;;;;5.68;1.65;;;;;;;;;;8342070;28;20679;-63
2022/11/25 05:31:00;;;;;;;7.30;1.40;;;;;;;;;;8342673;28;20040;-61
2022/11/25 05:35:00;;;;;;;5.60;1.33;;;;;;;;;;8342988;28;20258;-62
2022/11/25 05:39:01;;;;;;;4.20;1.47;;;;;;;;;;8344882;28;20025;-62
2022/11/25 05:43:02;;;;;;;4.80;1.25;;;;;;;;;;8342269;28;20267;-62
2022/11/25 05:47:02;;;;;;;5.00;1.48;;;;;;;;;;8342780;28;20040;-62
2022/11/25 05:51:03;;;;;;;5.25;1.20;;;;;;;;;;8339597;28;20013;-62
2022/11/25 05:55:03;;;;;;;4.28;1.00;;;;;;;;;;8342037;28;20621;-63
2022/11/25 05:59:03;;;;;;;9.07;1.67;;;;;;;;;;8340468;28;20526;-62
2022/11/25 06:03:04;;;;;;;5.05;1.45;;;;;;;;;;8340731;28;20079;-62
2022/11/25 06:07:05;;;;;;;4.07;1.47;;;;;;;;;;8341277;28;20024;-61
2022/11/25 06:11:10;;;;;;;4.88;1.48;;;;;;;;;;8343713;28;20324;-61
2022/11/25 06:15:11;;;;;;;5.22;1.35;;;;;;;;;;8338861;28;20140;-62
2022/11/25 06:19:11;;;;;;;8.15;1.42;;;;;;;;;;8341125;28;20100;-63
2022/11/25 06:23:11;;;;;;;8.05;1.67;;;;;;;;;;8341419;28;20020;-62
2022/11/25 06:27:11;;;;;;;6.53;1.48;;;;;;;;;;8341060;28;20024;-62
2022/11/25 06:31:16;;;;;;;7.30;1.47;;;;;;;;;;8333718;28;20109;-61
2022/11/25 06:35:16;;;;;;;7.10;1.42;;;;;;;;;;8331426;28;20548;-61
2022/11/25 06:39:16;;;;;;;8.90;1.40;;;;;;;;;;8330052;28;20427;-61
2022/11/25 06:43:17;;;;;;;6.60;1.58;;;;;;;;;;8330735;28;20135;-61
2022/11/25 06:47:17;;;;;;;6.07;1.70;;;;;;;;;;8331645;28;20028;-61
2022/11/25 06:51:17;;;;;;;3.80;1.20;;;;;;;;;;8328539;28;20027;-61
2022/11/25 06:55:17;;;;;;;3.45;1.20;;;;;;;;;;8331309;28;20029;-61
2022/11/25 06:59:18;;;;;;;8.73;2.38;;;;;;;;;;8328538;28;20467;-61
2022/11/25 07:03:18;;;;;;;5.88;1.63;;;;;;;;;;8331190;28;20576;-62
2022/11/25 07:07:19;;;;;;;7.47;2.03;;;;;;;;;;8330657;28;20115;-60
2022/11/25 07:11:23;;;;;;;4.68;1.40;;;;;;;;;;8330559;28;20648;-61
2022/11/25 07:15:23;;;;;;;;;;;;;;;;;;8330980;28;20049;-62
2022/11/25 07:19:23;;;;;;;4.25;1.70;;;;;;;;;;8330375;28;19919;-62
2022/11/25 07:23:23;;;;;;;8.90;2.03;;;;;;;;;;8329148;28;20644;-62
2022/11/25 07:27:24;;;;;;;7.00;1.80;;;;;;;;;;8330707;28;20144;-61
2022/11/25 07:31:25;;;;;;;6.22;1.60;;;;;;;;;;8329134;28;20041;-62
2022/11/25 07:35:26;;;;;;;5.40;1.42;;;;;;;;;;8329425;28;20028;-63
2022/11/25 07:39:26;;;;;;;6.93;1.50;;;;;;;;;;8330285;28;20488;-62
2022/11/25 07:43:26;;;;;;;6.47;1.45;;;;;;;;;;8329606;28;20375;-61
2022/11/25 07:47:26;;;;;;;5.15;1.52;;;;;;;;;;8329211;28;20805;-61
2022/11/25 07:51:56;;;;;;;7.38;1.90;;;;;;;;;;8330104;28;20600;-61
2022/11/25 07:55:59;;;;;;;3.63;1.60;;;;;;;;;;8317888;28;20032;-61
2022/11/25 08:00:00;;;;;;;5.03;1.63;;;;;;;;;;8330755;28;20071;-61
2022/11/25 08:04:00;;;;;;;5.15;1.58;;;;;;;;;;8329801;28;20172;-61
2022/11/25 08:08:00;;;;;;;5.55;1.80;;;;;;;;;;8329320;28;20074;-60
2022/11/25 08:12:01;;;;;;;7.13;1.98;;;;;;;;;;8330278;28;20024;-61
2022/11/25 08:16:01;;;;;;;5.22;1.90;;;;;;;;;;8327918;28;20045;-61
2022/11/25 08:20:01;;;;;;;6.25;1.85;;;;;;;;;;8329719;28;20561;-61
2022/11/25 08:24:02;;;;;;;9.30;4.47;;;;;;;;;;8328683;28;20234;-62
2022/11/25 08:28:02;;;;;;;23.88;9.70;;;;;;;;;;8327702;28;20386;-61
2022/11/25 08:32:02;;;;;;;16.60;5.28;;;;;;;;;;8328172;28;20091;-61
2022/11/25 08:36:03;;;;;;;11.13;4.57;;;;;;;;;;8310787;28;20094;-61
2022/11/25 08:40:03;;;;;;;12.65;5.10;;;;;;;;;;8329074;28;20037;-61
2022/11/25 08:44:04;;;;;;;6.97;2.70;;;;;;;;;;8327137;28;20830;-62
2022/11/25 08:48:05;;;;;;;5.63;2.67;;;;;;;;;;8326750;28;20265;-61
2022/11/25 08:52:05;;;;;;;16.15;4.50;;;;;;;;;;8324458;28;20016;-62
2022/11/25 08:56:06;;;;;;;6.40;3.67;;;;;;;;;;8326177;28;20602;-62
2022/11/25 09:00:07;;;;;;;7.40;2.97;;;;;;;;;;8324291;28;20441;-62
2022/11/25 09:04:07;;;;;;;6.00;1.95;;;;;;;;;;8324891;28;20021;-61
2022/11/25 09:08:08;;;;;;;6.63;2.30;;;;;;;;;;8318989;28;20035;-62
2022/11/25 09:12:09;;;;;;;8.18;2.45;;;;;;;;;;8324042;28;20267;-62
2022/11/25 09:16:09;;;;;;;3.92;2.30;;;;;;;;;;8323343;28;20449;-62
2022/11/25 09:20:09;;;;;;;8.40;2.60;;;;;;;;;;8318761;28;20017;-62
2022/11/25 09:24:10;;;;;;;11.32;4.00;;;;;;;;;;8317217;28;20025;-62
2022/11/25 09:28:10;;;;;;;6.82;3.13;;;;;;;;;;8321286;28;20029;-62
2022/11/25 09:32:10;;;;;;;10.23;3.80;;;;;;;;;;8319744;28;20524;-62
2022/11/25 09:36:12;;;;;;;16.95;5.93;;;;;;;;;;8320807;28;20357;-62
2022/11/25 09:40:24;;;;;;;5.88;2.17;;;;;;;;;;8321074;28;20390;-62
2022/11/25 09:48:58;;;;;;;7.65;2.85;;;;;;;;;;8319953;28;20082;-63
2022/11/25 09:53:07;;;;;;;5.82;2.90;;;;;;;;;;8327029;28;20017;-63
2022/11/25 09:57:16;;;;;;;8.98;3.50;;;;;;;;;;8328922;28;20052;-61
2022/11/25 10:01:21;;;;;;;12.43;3.55;;;;;;;;;;8327513;28;20115;-61
2022/11/25 10:05:30;;;;;;;8.68;2.72;;;;;;;;;;8329282;28;20048;-61
2022/11/25 10:09:32;;;;;;;7.43;2.95;;;;;;;;;;8315375;28;20052;-61
2022/11/25 10:13:37;;;;;;;11.63;3.28;;;;;;;;;;8329923;28;20028;-62
2022/11/25 10:17:43;;;;;;;6.75;3.40;;;;;;;;;;8328527;28;20079;-62
2022/11/25 10:21:45;;;;;;;9.57;2.80;;;;;;;;;;8327820;28;20024;-61
2022/11/25 10:25:47;;;;;;;5.95;2.30;;;;;;;;;;8329020;28;20809;-62
2022/11/25 10:29:51;;;;;;;7.35;2.42;;;;;;;;;;8327658;28;20658;-61
2022/11/25 10:33:53;;;;;;;8.23;2.53;;;;;;;;;;8335070;28;20040;-62
2022/11/25 10:37:54;;;;;;;6.72;2.30;;;;;;;;;;8341923;28;20025;-61
2022/11/25 10:41:57;;;;;;;8.32;2.38;;;;;;;;;;8341872;28;20020;-60
2022/11/25 10:46:05;;;;;;;7.65;2.67;;;;;;;;;;8339113;28;20591;-60
2022/11/25 10:50:10;;;;;;;4.82;2.65;;;;;;;;;;8342277;28;20096;-62
2022/11/25 10:54:20;;;;;;;8.00;3.38;;;;;;;;;;8336630;28;20032;-61
2022/11/25 10:58:41;;;;;;;6.22;2.45;;;;;;;;;;8330997;28;20031;-62
2022/11/25 11:02:46;;;;;;;9.13;3.85;;;;;;;;;;8337108;28;20426;-63
2022/11/25 11:06:48;;;;;;;9.60;4.05;;;;;;;;;;8339555;28;20054;-61
2022/11/25 11:11:07;;;;;;;8.82;3.10;;;;;;;;;;8340922;28;20474;-62
2022/11/25 11:15:14;;;;;;;6.78;2.10;;;;;;;;;;8323995;28;20024;-62
2022/11/25 11:19:21;;;;;;;6.78;2.28;;;;;;;;;;8341992;28;20077;-63
2022/11/25 11:23:22;;;;;;;7.97;2.60;;;;;;;;;;8341728;28;20538;-61
2022/11/25 11:27:23;;;;;;;7.78;2.15;;;;;;;;;;8321716;28;20024;-62
2022/11/25 11:31:29;;;;;;;5.50;2.17;;;;;;;;;;8339535;28;20087;-62
2022/11/25 11:35:29;;;;;;;7.93;2.40;;;;;;;;;;8340275;28;20378;-63
2022/11/25 11:39:29;;;;;;;5.93;1.80;;;;;;;;;;8340871;28;20710;-63
2022/11/25 11:43:38;;;;;;;6.97;2.28;;;;;;;;;;8332168;28;20285;-62
2022/11/25 11:47:45;;;;;;;7.93;2.50;;;;;;;;;;8329382;28;20445;-62
2022/11/25 11:52:06;;;;;;;7.72;2.60;;;;;;;;;;8330542;28;20077;-62
2022/11/25 11:56:24;;;;;;;9.23;2.50;;;;;;;;;;8329021;28;20040;-62
2022/11/25 12:00:25;;;;;;;6.25;2.17;;;;;;;;;;8330285;28;20304;-63
2022/11/25 12:04:29;;;;;;;8.40;2.60;;;;;;;;;;8328558;28;20076;-62
2022/11/25 12:08:33;;;;;;;6.97;2.70;;;;;;;;;;8329061;28;20060;-63
2022/11/25 12:12:36;;;;;;;5.90;2.30;;;;;;;;;;8329899;28;20024;-62
2022/11/25 12:16:45;;;;;;;4.90;1.65;;;;;;;;;;8328170;28;20048;-62
2022/11/25 12:20:52;;;;;;;9.05;1.90;;;;;;;;;;8329658;28;20234;-63
2022/11/25 12:24:53;;;;;;;7.28;1.90;;;;;;;;;;8328847;28;20028;-63
2022/11/25 12:28:56;;;;;;;5.35;1.70;;;;;;;;;;8333594;28;20017;-63
2022/11/25 12:33:02;;;;;;;5.53;2.10;;;;;;;;;;8335530;28;20028;-63
2022/11/25 12:37:14;;;;;;;9.82;1.85;;;;;;;;;;8334584;28;20163;-63
2022/11/25 12:41:19;;;;;;;7.30;1.77;;;;;;;;;;8337592;28;20028;-63
2022/11/25 12:45:19;;;;;;;;;;;;;;;;;;8335872;28;20767;-63
2022/11/25 12:49:21;;;;;;;8.40;2.33;;;;;;;;;;8320616;28;19920;-63
2022/11/25 12:53:30;;;;;;;8.52;2.08;;;;;;;;;;8335921;28;20557;-63
2022/11/25 12:57:44;;;;;;;8.60;1.92;;;;;;;;;;8307650;28;20049;-62
2022/11/25 13:01:51;;;;;;;8.20;2.20;;;;;;;;;;8318302;28;20048;-63
2022/11/25 13:06:00;;;;;;;4.90;1.40;;;;;;;;;;8325819;28;20185;-62
2022/11/25 13:10:15;;;;;;;8.10;1.98;;;;;;;;;;8320854;28;20041;-64
2022/11/25 13:14:38;;;;;;;8.43;2.25;;;;;;;;;;8329115;28;20892;-63
2022/11/25 13:18:40;;;;;;;10.07;2.08;;;;;;;;;;8337633;28;20041;-62
2022/11/25 13:22:40;;;;;;;9.40;2.20;;;;;;;;;;8334895;28;20081;-63
2022/11/25 13:26:47;;;;;;;6.30;2.28;;;;;;;;;;8341173;28;20898;-69
2022/11/25 13:30:50;;;;;;;7.55;2.08;;;;;;;;;;8323113;28;20128;-63
2022/11/25 13:35:10;;;;;;;6.68;2.25;;;;;;;;;;8344150;28;20136;-62
2022/11/25 13:39:15;;;;;;;6.40;2.33;;;;;;;;;;8342876;28;20028;-62
2022/11/25 13:43:20;;;;;;;6.93;2.35;;;;;;;;;;8343673;28;20020;-62
2022/11/25 13:47:29;;;;;;;7.95;2.08;;;;;;;;;;8350219;28;20029;-62
2022/11/25 13:51:29;;;;;;;7.10;2.20;;;;;;;;;;8363727;28;20398;-63
2022/11/25 13:55:30;;;;;;;8.55;2.17;;;;;;;;;;8360953;28;20061;-62
2022/11/25 13:59:46;;;;;;;7.78;1.63;;;;;;;;;;8359417;28;20026;-62
2022/11/25 14:03:48;;;;;;;10.20;3.25;;;;;;;;;;8360246;28;20125;-62
2022/11/25 14:08:06;;;;;;;12.23;3.63;;;;;;;;;;8360479;28;20031;-62
2022/11/25 14:12:25;;;;;;;14.35;4.43;;;;;;;;;;8360453;28;20036;-63
2022/11/25 14:16:25;;;;;;;16.05;3.75;;;;;;;;;;8360251;28;20037;-65
2022/11/25 14:20:50;;;;;;;10.43;2.92;;;;;;;;;;8360222;28;20051;-62
2022/11/25 14:24:59;;;;;;;10.23;2.55;;;;;;;;;;8362501;28;20024;-62
2022/11/25 14:29:01;;;;;;;12.02;2.20;;;;;;;;;;8338237;28;20493;-62
2022/11/25 14:33:02;;;;;;;13.88;2.70;;;;;;;;;;8339777;28;20840;-62
2022/11/25 14:37:13;;;;;;;8.10;2.22;;;;;;;;;;8358766;28;20059;-61
2022/11/25 14:41:17;;;;;;;11.93;2.60;;;;;;;;;;8358328;28;20032;-62
2022/11/25 14:45:20;;;;;;;9.30;2.30;;;;;;;;;;8359695;28;20020;-63
2022/11/25 14:49:21;;;;;;;11.23;2.10;;;;;;;;;;8360616;28;20082;-62
2022/11/25 14:53:21;;;;;;;4.63;1.77;;;;;;;;;;8359995;28;20060;-62
2022/11/25 14:57:23;;;;;;;10.30;2.92;;;;;;;;;;8360371;28;20023;-62
2022/11/25 15:01:27;;;;;;;6.40;2.03;;;;;;;;;;8329867;28;20122;-62
2022/11/25 15:05:34;;;;;;;7.95;1.80;;;;;;;;;;8359123;28;20028;-62
2022/11/25 15:09:41;;;;;;;7.93;3.13;;;;;;;;;;8360387;28;20028;-62
2022/11/25 15:13:42;;;;;;;10.88;4.35;;;;;;;;;;8358539;28;20107;-62
2022/11/25 15:17:43;;;;;;;16.20;4.50;;;;;;;;;;8358559;28;20049;-62
2022/11/25 15:21:43;;;;;;;11.63;4.95;;;;;;;;;;8354498;28;20017;-62
2022/11/25 15:25:50;;;;;;;14.32;4.70;;;;;;;;;;8351212;28;20032;-62
2022/11/25 15:29:51;;;;;;;14.10;5.20;;;;;;;;;;8353642;28;20032;-61
2022/11/25 15:33:53;;;;;;;10.93;5.10;;;;;;;;;;8351820;28;20106;-61
2022/11/25 15:37:53;;;;;;;8.02;3.20;;;;;;;;;;8351253;28;20027;-61
2022/11/25 15:41:55;;;;;;;13.43;3.50;;;;;;;;;;8350909;28;20770;-62
2022/11/25 15:45:58;;;;;;;13.52;5.45;;;;;;;;;;8349316;28;20059;-62
2022/11/25 15:50:15;;;;;;;7.50;3.38;;;;;;;;;;8352169;28;20020;-62
2022/11/25 15:54:23;;;;;;;13.95;6.35;;;;;;;;;;8352408;28;20040;-63
2022/11/25 15:58:23;;;;;;;12.70;4.15;;;;;;;;;;8354713;28;20033;-62
2022/11/25 16:02:33;;;;;;;13.87;4.90;;;;;;;;;;8353671;28;20032;-63
2022/11/25 16:06:34;;;;;;;11.10;3.45;;;;;;;;;;8354756;28;20033;-62
2022/11/25 16:10:43;;;;;;;9.90;2.25;;;;;;;;;;8353703;28;20123;-63
2022/11/25 16:14:44;;;;;;;8.90;2.45;;;;;;;;;;8351994;28;20028;-61
2022/11/25 16:19:03;;;;;;;9.73;2.70;;;;;;;;;;8354854;28;20075;-62
2022/11/25 16:23:07;;;;;;;9.68;2.60;;;;;;;;;;8351965;28;20027;-62
2022/11/25 16:27:16;;;;;;;12.10;2.50;;;;;;;;;;8353374;28;20400;-62
2022/11/25 16:31:16;;;;;;;14.40;2.25;;;;;;;;;;8340775;28;20090;-61
2022/11/25 16:35:19;;;;;;;12.05;2.83;;;;;;;;;;8343176;28;20922;-60
2022/11/25 16:39:19;;;;;;;9.70;2.60;;;;;;;;;;8345440;28;20374;-61
2022/11/25 16:43:24;;;;;;;9.68;2.78;;;;;;;;;;8342321;28;20020;-63
2022/11/25 16:47:25;;;;;;;13.07;2.45;;;;;;;;;;8339456;28;20040;-62
2022/11/25 16:51:25;;;;;;;10.55;2.30;;;;;;;;;;8341238;28;20051;-62
2022/11/25 16:55:26;;;;;;;8.98;2.40;;;;;;;;;;8340970;28;20839;-62
2022/11/25 16:59:31;;;;;;;12.15;2.30;;;;;;;;;;8348937;28;20025;-62
2022/11/25 17:03:33;;;;;;;13.93;2.35;;;;;;;;;;8356619;28;20941;-62
2022/11/25 17:07:33;;;;;;;13.32;3.85;;;;;;;;;;8356788;28;20258;-62
2022/11/25 17:11:53;;;;;;;10.38;1.92;;;;;;;;;;8358542;28;20021;-62
2022/11/25 17:15:54;;;;;;;13.55;2.22;;;;;;;;;;8353773;28;20075;-62
2022/11/25 17:19:54;;;;;;;15.90;2.27;;;;;;;;;;8359150;28;20025;-62
2022/11/25 17:23:58;;;;;;;9.47;2.27;;;;;;;;;;8356679;28;20251;-62
2022/11/25 17:27:58;;;;;;;10.82;2.70;;;;;;;;;;8354585;28;20863;-62
2022/11/25 17:31:59;;;;;;;10.65;2.22;;;;;;;;;;8357725;28;20648;-62
2022/11/25 17:35:59;;;;;;;5.97;1.90;;;;;;;;;;8352620;28;20092;-62
2022/11/25 17:39:59;;;;;;;9.27;2.20;;;;;;;;;;8353962;28;20378;-62
2022/11/25 17:43:59;;;;;;;9.70;1.83;;;;;;;;;;8353460;28;20021;-62
2022/11/25 17:48:00;;;;;;;11.05;2.25;;;;;;;;;;8351947;28;20739;-62
2022/11/25 17:52:00;;;;;;;9.50;2.67;;;;;;;;;;8357794;28;20055;-62
2022/11/25 17:56:00;;;;;;;11.55;2.08;;;;;;;;;;8354717;28;20055;-62
2022/11/25 18:00:00;;;;;;;18.92;2.45;;;;;;;;;;8353411;28;20020;-62
2022/11/25 18:04:14;;;;;;;10.30;2.75;;;;;;;;;;8351086;28;20370;-62
2022/11/25 18:08:15;;;;;;;9.57;2.20;;;;;;;;;;8349234;28;20036;-62
2022/11/25 18:12:22;;;;;;;11.88;1.98;;;;;;;;;;8348154;28;20043;-63
2022/11/25 18:16:22;;;;;;;14.80;2.20;;;;;;;;;;8348281;28;20198;-61
2022/11/25 18:20:23;;;;;;;9.20;2.40;;;;;;;;;;8345485;28;20633;-62
2022/11/25 18:24:23;;;;;;;13.77;2.50;;;;;;;;;;8346105;28;20027;-62
2022/11/25 18:28:24;;;;;;;9.43;2.42;;;;;;;;;;8345913;28;20029;-62
2022/11/25 18:32:25;;;;;;;12.82;2.33;;;;;;;;;;8348381;28;20513;-61
2022/11/25 18:36:25;;;;;;;14.50;2.67;;;;;;;;;;8348131;28;20032;-61
2022/11/25 18:40:26;;;;;;;11.52;2.60;;;;;;;;;;8348215;28;20352;-62
2022/11/25 18:44:30;;;;;;;11.40;2.10;;;;;;;;;;8348201;28;20028;-62
2022/11/25 18:48:30;;;;;;;13.38;2.90;;;;;;;;;;8350709;28;20088;-61
2022/11/25 18:52:31;;;;;;;10.10;2.03;;;;;;;;;;8345608;28;20067;-62
2022/11/25 18:56:32;;;;;;;7.47;2.05;;;;;;;;;;8345998;28;20356;-62
2022/11/25 19:00:32;;;;;;;12.95;2.28;;;;;;;;;;8346152;28;20147;-62
2022/11/25 19:04:32;;;;;;;10.25;2.00;;;;;;;;;;8343930;28;20471;-62
2022/11/25 19:08:32;;;;;;;12.45;2.15;;;;;;;;;;8349047;28;20028;-61
2022/11/25 19:12:33;;;;;;;6.50;1.90;;;;;;;;;;8348674;28;20499;-62
2022/11/25 19:16:33;;;;;;;9.18;2.20;;;;;;;;;;8343965;28;20032;-61
2022/11/25 19:20:33;;;;;;;9.35;2.13;;;;;;;;;;8345942;28;20021;-62
2022/11/25 19:24:33;;;;;;;8.98;1.83;;;;;;;;;;8343287;28;20024;-61
2022/11/25 19:28:34;;;;;;;12.77;2.83;;;;;;;;;;8331369;28;20055;-62
2022/11/25 19:32:34;;;;;;;10.53;2.33;;;;;;;;;;8345844;28;20110;-61
2022/11/25 19:36:36;;;;;;;13.90;3.20;;;;;;;;;;8344685;28;20325;-62
2022/11/25 19:40:39;;;;;;;12.02;2.15;;;;;;;;;;8347680;28;20114;-62
2022/11/25 19:44:40;;;;;;;13.68;2.15;;;;;;;;;;8344660;28;20574;-62
2022/11/25 19:48:40;;;;;;;8.52;2.45;;;;;;;;;;8345163;28;20047;-62
2022/11/25 19:52:40;;;;;;;10.48;2.45;;;;;;;;;;8345897;28;20681;-62
2022/11/25 19:56:40;;;;;;;8.00;1.92;;;;;;;;;;8332256;28;20026;-62
2022/11/25 20:00:42;;;;;;;11.52;2.13;;;;;;;;;;8342969;28;20626;-62
2022/11/25 20:04:44;;;;;;;11.38;2.85;;;;;;;;;;8348034;28;20107;-62
2022/11/25 20:08:44;;;;;;;14.13;2.70;;;;;;;;;;8346557;28;20095;-61
2022/11/25 20:12:45;;;;;;;5.95;1.77;;;;;;;;;;8348457;28;20082;-62
2022/11/25 20:16:46;;;;;;;11.77;2.45;;;;;;;;;;8346277;28;20378;-62
2022/11/25 20:20:47;;;;;;;11.02;2.15;;;;;;;;;;8347341;28;20476;-62
2022/11/25 20:24:48;;;;;;;10.90;2.15;;;;;;;;;;8328339;28;20024;-62
2022/11/25 20:28:48;;;;;;;9.15;2.42;;;;;;;;;;8348241;28;20032;-62
2022/11/25 20:32:48;;;;;;;13.52;2.80;;;;;;;;;;8346887;28;20045;-61
2022/11/25 20:36:48;;;;;;;17.45;2.92;;;;;;;;;;8344875;28;20032;-65
2022/11/25 20:40:50;;;;;;;12.27;3.45;;;;;;;;;;8346661;28;21061;-62
2022/11/25 20:44:50;;;;;;;9.52;2.20;;;;;;;;;;8342612;28;20023;-62
2022/11/25 20:48:59;;;;;;;13.50;2.88;;;;;;;;;;8343689;28;20454;-62
2022/11/25 20:52:59;;;;;;;18.05;3.10;;;;;;;;;;8343301;28;20037;-63
2022/11/25 20:57:00;;;;;;;12.77;3.40;;;;;;;;;;8348136;28;20035;-62
2022/11/25 21:01:00;;;;;;;12.82;3.15;;;;;;;;;;8328183;28;20035;-62
2022/11/25 21:05:00;;;;;;;14.38;4.13;;;;;;;;;;8327677;28;20025;-62
2022/11/25 21:09:01;;;;;;;12.13;2.60;;;;;;;;;;8347972;28;20032;-62
2022/11/25 21:13:08;;;;;;;8.68;2.42;;;;;;;;;;8328255;28;20101;-62
2022/11/25 21:17:08;;;;;;;14.48;2.88;;;;;;;;;;8348974;28;20801;-63
2022/11/25 21:21:17;;;;;;;7.78;1.80;;;;;;;;;;8353882;28;20710;-63
2022/11/25 21:25:18;;;;;;;10.77;2.88;;;;;;;;;;8351971;28;20104;-62
2022/11/25 21:29:19;;;;;;;14.75;2.70;;;;;;;;;;8352177;28;20033;-62
2022/11/25 21:33:19;;;;;;;13.93;2.78;;;;;;;;;;8354096;28;20047;-62
2022/11/25 21:37:31;;;;;;;15.27;2.40;;;;;;;;;;8350326;28;20024;-63
2022/11/25 21:41:31;;;;;;;11.05;2.50;;;;;;;;;;8345172;28;20420;-62
2022/11/25 21:45:32;;;;;;;10.18;2.55;;;;;;;;;;8333753;28;20037;-61
2022/11/25 21:49:32;;;;;;;13.00;2.57;;;;;;;;;;8351507;28;20017;-62
2022/11/25 21:53:33;;;;;;;18.00;4.38;;;;;;;;;;8362988;28;20028;-62
2022/11/25 21:57:34;;;;;;;13.27;3.15;;;;;;;;;;8359757;28;20028;-62
2022/11/25 22:01:34;;;;;;;13.38;3.80;;;;;;;;;;8360442;28;20139;-62
2022/11/25 22:05:34;;;;;;;16.65;4.35;;;;;;;;;;8357460;28;20017;-61
2022/11/25 22:09:35;;;;;;;14.17;4.13;;;;;;;;;;8356591;28;20119;-62
2022/11/25 22:13:36;;;;;;;15.30;3.58;;;;;;;;;;8358839;28;20259;-62
2022/11/25 22:17:37;;;;;;;10.70;2.85;;;;;;;;;;8360095;28;20131;-63
2022/11/25 22:21:37;;;;;;;10.57;2.33;;;;;;;;;;8361453;28;20019;-65
2022/11/25 22:25:37;;;;;;;9.55;2.10;;;;;;;;;;8361943;28;20333;-62
2022/11/25 22:29:37;;;;;;;9.10;1.95;;;;;;;;;;8358633;28;20032;-62
2022/11/25 22:33:38;;;;;;;9.68;2.28;;;;;;;;;;8360764;28;20105;-62
2022/11/25 22:37:38;;;;;;;16.60;3.47;;;;;;;;;;8361279;28;20028;-62
2022/11/25 22:41:38;;;;;;;14.83;4.47;;;;;;;;;;8360829;28;20878;-62
2022/11/25 22:45:39;;;;;;;12.18;2.63;;;;;;;;;;8359640;28;20111;-62
2022/11/25 22:49:41;;;;;;;11.20;2.60;;;;;;;;;;8361519;28;20059;-62
2022/11/25 22:53:42;;;;;;;17.13;2.88;;;;;;;;;;8360503;28;20282;-63
2022/11/25 22:57:42;;;;;;;15.85;2.72;;;;;;;;;;8361379;28;20155;-62
2022/11/25 23:01:43;;;;;;;14.43;3.40;;;;;;;;;;8359140;28;20063;-62
2022/11/25 23:05:44;;;;;;;11.63;4.00;;;;;;;;;;8358444;28;20020;-62
2022/11/25 23:09:44;;;;;;;14.30;4.78;;;;;;;;;;8361450;28;20044;-66
2022/11/25 23:13:47;;;;;;;14.37;4.43;;;;;;;;;;8360299;28;21062;-62
2022/11/25 23:17:49;;;;;;;10.60;2.85;;;;;;;;;;8359641;28;20290;-62
2022/11/25 23:21:49;;;;;;;9.23;2.10;;;;;;;;;;8363019;28;20020;-62
2022/11/25 23:25:49;;;;;;;9.43;2.10;;;;;;;;;;8359477;28;20028;-62
2022/11/25 23:29:49;;;;;;;13.27;2.53;;;;;;;;;;8358657;28;20047;-62
2022/11/25 23:33:50;;;;;;;8.77;2.10;;;;;;;;;;8358982;28;20038;-62
2022/11/25 23:37:52;;;;;;;13.57;2.08;;;;;;;;;;8358083;28;20397;-62
2022/11/25 23:41:53;;;;;;;10.02;2.00;;;;;;;;;;8358829;28;20016;-63
2022/11/25 23:45:54;;;;;;;9.55;1.75;;;;;;;;;;8357089;28;20627;-62
2022/11/25 23:49:55;;;;;;;9.00;1.83;;;;;;;;;;8357532;28;20092;-62
2022/11/25 23:53:56;;;;;;;14.15;2.28;;;;;;;;;;8359277;28;20028;-62
2022/11/25 23:57:56;;;;;;;9.85;2.25;;;;;;;;;;8358485;28;20017;-62
